Time;durP1;ratioP1;P1;durP2;ratioP2;P2;SDS_P1;SDS_P2;PMS_P1;PMS_P2;Temp;Humidity;BMP_temperature;BMP_pressure;BME280_temperature;BME280_humidity;BME280_pressure;Samples;Min_cycle;Max_cycle;Signal;HPM_P1;HPM_P2
2023/03/30 00:03:26;;;;;;;;;15.50;13.75;;;;;8.60;37.15;101863.81;146625;615;45021;-72
2023/03/30 00:11:44;;;;;;;;;;;;;;;;;;;;;
2023/03/30 00:15:46;;;;;;;;;16.75;14.25;;;;;7.20;39.43;101683.19;146625;606;46012;-77
2023/03/30 00:19:51;;;;;;;;;;;;;;;;;;;;;
2023/03/30 00:23:45;;;;;;;;;5.00;5.00;;;;;7.90;38.58;101853.06;146628;563;45020;-78
2023/03/30 00:27:03;;;;;;;;;5.00;4.00;;;;;7.80;38.80;101860.09;146625;608;45014;-79
2023/03/30 00:30:42;;;;;;;;;;;;;;;;;;;;;
2023/03/30 00:34:19;;;;;;;;;7.50;6.50;;;;;7.60;40.12;101853.31;146624;668;45019;-76
2023/03/30 00:38:03;;;;;;;;;;;;;;;;;;;;;
2023/03/30 00:42:20;;;;;;;;;;;;;;;;;;;;;
2023/03/30 00:46:30;;;;;;;;;6.25;5.00;;;;;7.36;38.74;101826.41;146628;589;45022;-74
2023/03/30 00:50:16;;;;;;;;;6.50;5.50;;;;;7.47;39.28;101831.53;146625;590;45017;-74
2023/03/30 00:54:22;;;;;;;;;9.00;7.50;;;;;6.72;39.85;101689.62;146627;607;45020;-76
2023/03/30 01:02:17;;;;;;;;;7.25;4.75;;;;;5.21;40.00;101447.13;146628;577;45022;-74
2023/03/30 01:09:55;;;;;;;;;1.50;1.50;;;;;7.27;40.78;101841.16;146627;590;46010;-72
2023/03/30 01:13:52;;;;;;;;;;;;;;;;;;;;;
2023/03/30 01:18:07;;;;;;;;;4.75;2.50;;;;;6.40;40.74;101711.06;146628;576;45022;-80
2023/03/30 01:21:41;;;;;;;;;4.00;4.00;;;;;6.98;40.85;101825.84;146621;569;45919;-79
2023/03/30 01:25:19;;;;;;;;;3.00;3.00;;;;;6.96;40.80;101831.66;146625;571;45021;-77
2023/03/30 01:29:10;;;;;;;;;5.25;4.50;;;;;6.96;41.42;101832.56;146623;620;45919;-78
2023/03/30 01:32:56;;;;;;;;;;;;;;;;;;;;;
2023/03/30 01:37:06;;;;;;;;;;;;;;;;;;;;;
2023/03/30 01:41:12;;;;;;;;;;;;;;;;;;;;;
2023/03/30 01:45:03;;;;;;;;;5.00;5.00;;;;;6.55;43.77;101832.56;146625;612;45016;-75
2023/03/30 01:57:53;;;;;;;;;6.00;5.25;;;;;6.16;44.61;101824.88;146628;576;45020;-74
2023/03/30 02:01:48;;;;;;;;;5.50;5.00;;;;;5.94;44.14;101805.00;146624;573;45017;-80
2023/03/30 02:05:16;;;;;;;;;6.00;5.50;;;;;5.99;44.82;101829.47;146625;569;45020;-73
2023/03/30 02:09:03;;;;;;;;;;;;;;;;;;;;;
2023/03/30 02:12:32;;;;;;;;;;;;;;;;;;;;;
2023/03/30 02:24:41;;;;;;;;;;;;;;;;;;;;;
2023/03/30 02:33:09;;;;;;;;;;;;;;;;;;;;;
2023/03/30 02:37:37;;;;;;;;;;;;;;;;;;;;;
2023/03/30 02:54:00;;;;;;;;;;;;;;;;;;;;;
2023/03/30 02:58:03;;;;;;;;;5.75;4.00;;;;;5.58;45.29;101828.41;146627;570;45016;-73
2023/03/30 03:02:24;;;;;;;;;;;;;;;;;;;;;
2023/03/30 03:06:23;;;;;;;;;;;;;;;;;;;;;
2023/03/30 03:10:06;;;;;;;;;;;;;;;;;;;;;
2023/03/30 03:14:02;;;;;;;;;7.75;7.75;;;;;5.39;46.65;101814.62;146624;721;45919;-71
2023/03/30 03:18:04;;;;;;;;;;;;;;;;;;;;;
2023/03/30 03:21:52;;;;;;;;;7.25;4.75;;;;;4.43;44.67;101630.47;146628;574;45016;-72
2023/03/30 03:30:00;;;;;;;;;;;;;;;;;;;;;
2023/03/30 03:42:29;;;;;;;;;6.50;5.00;;;;;5.38;47.22;101848.84;146630;572;45020;-75
2023/03/30 03:46:11;;;;;;;;;5.25;4.50;;;;;5.32;48.67;101846.63;146628;575;45018;-76
2023/03/30 03:50:02;;;;;;;;;;;;;;;;;;;;;
2023/03/30 03:58:23;;;;;;;;;;;;;;;;;;;;;
2023/03/30 04:02:42;;;;;;;;;4.00;4.00;;;;;5.28;47.22;101857.41;146629;604;45014;-82
2023/03/30 04:06:56;;;;;;;;;8.25;7.50;;;;;5.20;47.78;101856.75;146623;571;45020;-83
2023/03/30 04:10:53;;;;;;;;;;;;;;;;;;;;;
2023/03/30 04:14:54;;;;;;;;;6.00;4.75;;;;;4.96;49.08;101818.50;146626;580;45020;-76
2023/03/30 04:26:17;;;;;;;;;7.00;6.00;;;;;4.93;48.28;101829.41;146624;564;45916;-75
2023/03/30 04:38:51;;;;;;;;;;;;;;;;;;;;;
2023/03/30 04:42:46;;;;;;;;;;;;;;;;;;;;;
2023/03/30 04:46:24;;;;;;;;;9.25;7.25;;;;;5.28;49.84;101870.28;146625;578;45021;-75
2023/03/30 04:50:19;;;;;;;;;8.75;8.75;;;;;4.75;49.84;101779.81;146626;642;45018;-76
2023/03/30 04:54:08;;;;;;;;;;;;;;;;;;;;;
2023/03/30 05:01:41;;;;;;;;;7.25;7.25;;;;;6.96;49.36;101863.50;146628;592;45023;-76
2023/03/30 05:22:13;;;;;;;;;;;;;;;;;;;;;
2023/03/30 05:26:04;;;;;;;;;19.50;15.75;;;;;12.33;36.64;101884.72;146635;691;45020;-77
2023/03/30 05:34:10;;;;;;;;;27.50;22.25;;;;;11.97;35.82;101879.91;146642;582;44020;-77
2023/03/30 05:37:56;;;;;;;;;;;;;;;;;;;;;
2023/03/30 05:41:32;;;;;;;;;20.25;18.25;;;;;11.93;36.04;101869.19;146641;569;44020;-74
2023/03/30 05:45:16;;;;;;;;;19.75;16.75;;;;;11.81;35.35;101840.72;146640;684;45017;-84
2023/03/30 05:49:12;;;;;;;;;22.00;16.25;;;;;11.98;35.27;101876.50;146639;614;45020;-75
2023/03/30 05:53:06;;;;;;;;;26.00;22.75;;;;;11.84;35.29;101850.37;146639;595;44024;-76
2023/03/30 06:01:15;;;;;;;;;;;;;;;;;;;;;
2023/03/30 06:05:07;;;;;;;;;;;;;;;;;;;;;
2023/03/30 06:09:02;;;;;;;;;18.75;17.00;;;;;10.83;35.40;101554.94;146633;596;45924;-74
2023/03/30 06:12:49;;;;;;;;;79.33;66.67;;;;;12.71;35.08;101837.66;146642;608;44020;-77
2023/03/30 06:16:24;;;;;;;;;132.00;112.75;;;;;13.18;34.68;101863.91;146643;566;44017;-71
2023/03/30 06:20:07;;;;;;;;;56.00;42.50;;;;;13.42;33.95;101863.56;146645;578;44020;-73
2023/03/30 06:27:41;;;;;;;;;;;;;;;;;;;;;
2023/03/30 06:31:47;;;;;;;;;;;;;;;;;;;;;
2023/03/30 06:35:52;;;;;;;;;;;;;;;;;;;;;
2023/03/30 06:43:42;;;;;;;;;6.75;5.25;;;;;14.52;33.48;101861.94;146649;673;44021;-74
2023/03/30 06:46:55;;;;;;;;;4.25;4.25;;;;;14.83;30.06;101875.66;146646;573;45918;-75
2023/03/30 06:51:12;;;;;;;;;;;;;;;;;;;;;
2023/03/30 06:55:09;;;;;;;;;3.00;2.50;;;;;13.30;30.95;101572.03;146648;566;44016;-73
2023/03/30 06:59:30;;;;;;;;;;;;;;;;;;;;;
2023/03/30 07:06:58;;;;;;;;;2.50;1.75;;;;;14.75;28.75;101727.38;146639;646;45012;-73
2023/03/30 07:10:52;;;;;;;;;;;;;;;;;;;;;
2023/03/30 07:14:57;;;;;;;;;;;;;;;;;;;;;
2023/03/30 07:19:18;;;;;;;;;;;;;;;;;;;;;
2023/03/30 07:23:06;;;;;;;;;1.50;1.50;;;;;15.93;28.66;101881.25;146628;720;45021;-71
2023/03/30 07:27:45;;;;;;;;;;;;;;;;;;;;;
2023/03/30 07:32:08;;;;;;;;;3.00;2.50;;;;;15.96;26.74;101860.47;146632;563;45023;-72
2023/03/30 07:36:00;;;;;;;;;;;;;;;;;;;;;
2023/03/30 07:40:31;;;;;;;;;;;;;;;;;;;;;
2023/03/30 07:44:29;;;;;;;;;2.00;2.00;;;;;16.22;29.70;101880.00;146631;566;45018;-73
2023/03/30 07:51:42;;;;;;;;;4.50;2.50;;;;;16.63;29.48;101878.38;146628;656;45915;-72
2023/03/30 07:59:15;;;;;;;;;1.00;1.00;;;;;17.27;28.61;101889.09;146631;633;45016;-76
2023/03/30 08:07:01;;;;;;;;;3.00;3.00;;;;;17.65;27.40;101876.66;146626;571;45018;-76
2023/03/30 08:10:52;;;;;;;;;;;;;;;;;;;;;
2023/03/30 08:18:23;;;;;;;;;9.75;6.50;;;;;18.35;27.36;101877.66;146631;571;45020;-74
2023/03/30 08:22:00;;;;;;;;;1.50;1.50;;;;;18.50;26.37;101878.25;146623;586;45018;-76
2023/03/30 08:26:00;;;;;;;;;;;;;;;;;;;;;
2023/03/30 08:30:02;;;;;;;;;;;;;;;;;;;;;
2023/03/30 08:33:52;;;;;;;;;2.00;0.00;;;;;17.76;28.22;101673.41;146628;661;45022;-77
2023/03/30 08:37:42;;;;;;;;;0.67;0.00;;;;;19.09;27.45;101862.88;146626;564;45018;-77
2023/03/30 08:41:50;;;;;;;;;;;;;;;;;;;;;
2023/03/30 08:45:08;;;;;;;;;1.25;0.75;;;;;19.46;24.44;101866.75;146624;567;45917;-76
2023/03/30 08:48:58;;;;;;;;;1.50;1.50;;;;;19.48;27.33;101873.87;146628;699;45022;-76
2023/03/30 08:52:49;;;;;;;;;3.50;2.00;;;;;19.65;26.00;101869.19;146625;660;45017;-79
2023/03/30 08:56:44;;;;;;;;;;;;;;;;;;;;;
2023/03/30 09:08:26;;;;;;;;;;;;;;;;;;;;;
2023/03/30 09:12:52;;;;;;;;;;;;;;;;;;;;;
2023/03/30 09:16:54;;;;;;;;;5.00;5.00;;;;;20.71;26.70;101857.47;146627;569;45029;-75
2023/03/30 09:21:02;;;;;;;;;;;;;;;;;;;;;
2023/03/30 09:25:30;;;;;;;;;;;;;;;;;;;;;
2023/03/30 09:29:42;;;;;;;;;;;;;;;;;;;;;
2023/03/30 09:34:15;;;;;;;;;;;;;;;;;;;;;
2023/03/30 09:42:25;;;;;;;;;1.00;1.00;;;;;20.95;26.37;101758.81;146628;658;45015;-75
2023/03/30 09:46:10;;;;;;;;;;;;;;;;;;;;;
2023/03/30 09:49:46;;;;;;;;;0.00;0.00;;;;;21.47;26.10;101807.59;146631;570;45018;-76
2023/03/30 09:53:38;;;;;;;;;;;;;;;;;;;;;
2023/03/30 09:58:08;;;;;;;;;;;;;;;;;;;;;
2023/03/30 10:02:17;;;;;;;;;;;;;;;;;;;;;
2023/03/30 10:06:48;;;;;;;;;3.00;1.33;;;;;21.27;25.21;101632.97;146630;675;45021;-74
2023/03/30 10:11:02;;;;;;;;;1.00;1.00;;;;;22.33;25.35;101794.53;146633;641;45020;-75
2023/03/30 10:14:39;;;;;;;;;1.00;1.00;;;;;22.34;24.89;101791.06;146649;586;44017;-76
2023/03/30 10:22:19;;;;;;;;;1.67;1.67;;;;;22.11;25.91;101772.06;146648;606;44017;-75
2023/03/30 10:26:35;;;;;;;;;4.67;3.00;;;;;21.91;24.62;101757.56;146654;595;44020;-76
2023/03/30 10:30:27;;;;;;;;;1.00;0.33;;;;;21.71;27.86;101767.66;146649;592;44017;-77
2023/03/30 10:33:51;;;;;;;;;1.00;0.33;;;;;21.41;26.91;101760.84;146641;624;45022;-74
2023/03/30 10:37:49;;;;;;;;;2.00;2.00;;;;;20.75;27.76;101660.81;146649;602;44917;-76
2023/03/30 10:50:27;;;;;;;;;;;;;;;;;;;;;
2023/03/30 10:54:14;;;;;;;;;;;;;;;;;;;;;
2023/03/30 11:06:15;;;;;;;;;1.00;1.00;;;;;21.20;27.60;101731.28;146650;708;44021;-75
2023/03/30 11:09:43;;;;;;;;;;;;;;;;;;;;;
2023/03/30 11:13:29;;;;;;;;;;;;;;;;;;;;;
2023/03/30 11:17:25;;;;;;;;;;;;;;;;;;;;;
2023/03/30 11:21:52;;;;;;;;;;;;;;;;;;;;;
2023/03/30 11:26:07;;;;;;;;;;;;;;;;;;;;;
2023/03/30 11:29:52;;;;;;;;;2.00;2.00;;;;;21.73;27.56;101693.81;146631;569;45020;-74
2023/03/30 11:38:18;;;;;;;;;;;;;;;;;;;;;
2023/03/30 11:45:57;;;;;;;;;2.00;2.00;;;;;21.40;28.50;101598.12;146634;657;45020;-75
2023/03/30 11:49:40;;;;;;;;;2.75;1.75;;;;;21.86;28.46;101670.31;146627;725;45915;-73
2023/03/30 11:53:45;;;;;;;;;1.33;0.00;;;;;21.77;28.11;101661.31;146631;593;45020;-77
2023/03/30 11:57:42;;;;;;;;;6.50;5.25;;;;;21.67;28.44;101658.50;146624;618;45017;-74
2023/03/30 12:01:42;;;;;;;;;2.00;1.00;;;;;21.63;28.61;101654.03;146630;593;45020;-75
2023/03/30 12:09:27;;;;;;;;;0.00;0.00;;;;;21.71;27.88;101630.41;146634;607;45022;-73
2023/03/30 12:13:11;;;;;;;;;1.25;1.25;;;;;21.34;28.28;101547.84;146623;570;46012;-75
2023/03/30 12:17:29;;;;;;;;;;;;;;;;;;;;;
2023/03/30 12:21:32;;;;;;;;;0.00;0.00;;;;;21.79;27.14;101630.56;146640;583;44920;-75
2023/03/30 12:29:29;;;;;;;;;2.00;0.67;;;;;21.64;26.87;101613.56;146646;582;44017;-75
2023/03/30 12:37:47;;;;;;;;;;;;;;;;;;;;;
2023/03/30 12:41:52;;;;;;;;;;;;;;;;;;;;;
2023/03/30 12:45:48;;;;;;;;;0.00;0.00;;;;;20.90;28.14;101607.53;146646;569;44016;-73
2023/03/30 12:50:27;;;;;;;;;;;;;;;;;;;;;
2023/03/30 12:54:22;;;;;;;;;;;;;;;;;;;;;
2023/03/30 13:02:39;;;;;;;;;0.00;0.00;;;;;19.28;30.82;101596.19;146645;588;44016;-73
2023/03/30 13:10:40;;;;;;;;;;;;;;;;;;;;;
2023/03/30 13:14:21;;;;;;;;;2.00;1.00;;;;;19.12;29.03;101582.56;146639;667;45012;-72
2023/03/30 13:18:40;;;;;;;;;1.00;0.00;;;;;18.20;29.39;101423.87;146626;659;45018;-70
2023/03/30 13:22:59;;;;;;;;;;;;;;;;;;;;;
2023/03/30 13:27:00;;;;;;;;;;;;;;;;;;;;;
2023/03/30 13:30:45;;;;;;;;;0.50;0.00;;;;;18.59;28.60;101484.59;146628;572;45020;-73
2023/03/30 13:34:35;;;;;;;;;0.00;0.00;;;;;19.01;28.49;101543.69;146627;642;45016;-72
2023/03/30 13:38:41;;;;;;;;;;;;;;;;;;;;;
2023/03/30 13:42:25;;;;;;;;;1.67;1.00;;;;;17.26;28.70;101204.94;146626;588;45915;-71
2023/03/30 13:50:19;;;;;;;;;0.67;0.00;;;;;19.21;27.59;101549.53;146630;565;45019;-70
2023/03/30 13:54:23;;;;;;;;;1.00;0.00;;;;;18.91;29.54;101539.91;146628;642;45020;-74
2023/03/30 13:58:58;;;;;;;;;;;;;;;;;;;;;
2023/03/30 14:03:26;;;;;;;;;;;;;;;;;;;;;
2023/03/30 14:07:10;;;;;;;;;1.00;0.00;;;;;18.73;31.13;101519.22;146625;570;45016;-71
2023/03/30 14:10:53;;;;;;;;;0.00;0.00;;;;;17.72;31.32;101340.09;146629;579;45021;-72
2023/03/30 14:15:05;;;;;;;;;;;;;;;;;;;;;
2023/03/30 14:18:54;;;;;;;;;;;;;;;;;;;;;
2023/03/30 14:22:50;;;;;;;;;;;;;;;;;;;;;
2023/03/30 14:26:50;;;;;;;;;1.00;1.00;;;;;17.34;30.20;101355.47;146634;631;45021;-70
2023/03/30 14:35:28;;;;;;;;;;;;;;;;;;;;;
2023/03/30 14:39:40;;;;;;;;;;;;;;;;;;;;;
2023/03/30 14:43:43;;;;;;;;;0.00;0.00;;;;;15.77;36.62;101189.28;146629;732;46020;-71
2023/03/30 14:47:33;;;;;;;;;2.00;1.00;;;;;16.33;39.95;101315.19;146626;635;45917;-70
2023/03/30 14:51:25;;;;;;;;;;;;;;;;;;;;;
2023/03/30 14:59:04;;;;;;;;;;;;;;;;;;;;;
2023/03/30 15:02:52;;;;;;;;;3.00;1.00;;;;;17.11;37.72;101476.97;146630;688;45020;-70
2023/03/30 15:06:47;;;;;;;;;2.00;2.00;;;;;15.09;39.18;101135.22;146631;622;45020;-70
2023/03/30 15:11:08;;;;;;;;;2.00;2.00;;;;;17.09;37.91;101477.78;146628;569;45017;-70
2023/03/30 15:15:55;;;;;;;;;;;;;;;;;;;;;
2023/03/30 15:20:28;;;;;;;;;;;;;;;;;;;;;
2023/03/30 15:24:04;;;;;;;;;2.00;2.00;;;;;17.01;37.86;101470.50;146626;611;45020;-69
2023/03/30 15:27:56;;;;;;;;;4.25;2.75;;;;;16.98;39.17;101467.75;146624;625;46012;-70
2023/03/30 15:31:42;;;;;;;;;2.00;1.00;;;;;15.83;36.98;101291.50;146628;566;45020;-71
2023/03/30 15:35:55;;;;;;;;;3.75;1.75;;;;;15.06;36.52;101153.38;146625;591;45016;-70
2023/03/30 15:39:52;;;;;;;;;;;;;;;;;;;;;
2023/03/30 15:43:44;;;;;;;;;3.00;3.00;;;;;14.63;38.56;101097.72;146625;695;45016;-69
2023/03/30 15:48:16;;;;;;;;;;;;;;;;;;;;;
2023/03/30 15:56:52;;;;;;;;;;;;;;;;;;;;;
2023/03/30 16:08:24;;;;;;;;;1.00;1.00;;;;;16.51;36.45;101474.63;146624;650;45018;-71
2023/03/30 16:12:59;;;;;;;;;;;;;;;;;;;;;
2023/03/30 16:17:15;;;;;;;;;;;;;;;;;;;;;
2023/03/30 16:21:14;;;;;;;;;;;;;;;;;;;;;
2023/03/30 16:24:58;;;;;;;;;;;;;;;;;;;;;
2023/03/30 16:28:44;;;;;;;;;;;;;;;;;;;;;
2023/03/30 16:32:38;;;;;;;;;;;;;;;;;;;;;
2023/03/30 16:36:52;;;;;;;;;;;;;;;;;;;;;
2023/03/30 16:44:39;;;;;;;;;7.50;6.75;;;;;16.27;35.06;101448.41;146626;595;45020;-70
2023/03/30 16:47:57;;;;;;;;;45.00;37.00;;;;;16.29;35.77;101439.81;146623;628;45017;-70
2023/03/30 16:51:34;;;;;;;;;8.00;7.25;;;;;16.32;35.40;101445.16;146628;577;45020;-71
2023/03/30 16:55:20;;;;;;;;;26.75;24.25;;;;;15.21;35.42;101241.09;146625;579;45016;-71
2023/03/30 17:04:10;;;;;;;;;4.00;4.00;;;;;15.21;43.02;101282.00;146624;612;45018;-71
2023/03/30 17:08:43;;;;;;;;;6.00;6.00;;;;;14.09;42.59;101136.28;146628;617;45020;-70
2023/03/30 17:16:05;;;;;;;;;9.25;6.00;;;;;14.42;43.71;101254.22;146628;649;45020;-70
2023/03/30 17:20:04;;;;;;;;;9.25;9.00;;;;;14.47;44.06;101288.38;146625;590;45018;-69
2023/03/30 17:24:16;;;;;;;;;17.75;14.25;;;;;13.32;43.88;101111.09;146620;569;47012;-71
2023/03/30 17:28:08;;;;;;;;;;;;;;;;;;;;;
2023/03/30 17:31:44;;;;;;;;;;;;;;;;;;;;;
2023/03/30 17:35:50;;;;;;;;;12.00;9.25;;;;;14.53;44.48;101364.34;146624;586;45018;-71
2023/03/30 17:39:58;;;;;;;;;12.75;12.50;;;;;13.96;44.63;101275.66;146627;584;45021;-70
2023/03/30 17:44:06;;;;;;;;;18.25;13.50;;;;;13.93;44.43;101267.69;146625;673;45016;-70
2023/03/30 17:48:18;;;;;;;;;;;;;;;;;;;;;
2023/03/30 17:52:42;;;;;;;;;;;;;;;;;;;;;
2023/03/30 17:56:17;;;;;;;;;15.50;12.75;;;;;15.01;50.10;101477.03;146627;588;45020;-70
2023/03/30 18:00:04;;;;;;;;;;;;;;;;;;;;;
2023/03/30 18:03:52;;;;;;;;;5.25;5.25;;;;;14.70;56.75;101482.56;146626;650;45022;-71
2023/03/30 18:11:37;;;;;;;;;4.25;3.00;;;;;13.21;56.04;101243.37;146628;572;45020;-70
2023/03/30 18:15:31;;;;;;;;;;;;;;;;;;;;;
2023/03/30 18:27:33;;;;;;;;;;;;;;;;;;;;;
2023/03/30 18:35:51;;;;;;;;;17.25;14.25;;;;;11.98;45.98;101062.97;146640;637;44020;-70
2023/03/30 18:39:17;;;;;;;;;;;;;;;;;;;;;
2023/03/30 18:42:54;;;;;;;;;;;;;;;;;;;;;
2023/03/30 18:50:44;;;;;;;;;28.50;25.25;;;;;13.21;44.58;101276.31;146639;577;44020;-71
2023/03/30 18:54:32;;;;;;;;;32.75;30.00;;;;;12.37;44.01;101112.59;146639;563;44017;-72
2023/03/30 18:59:09;;;;;;;;;;;;;;;;;;;;;
2023/03/30 19:11:28;;;;;;;;;;;;;;;;;;;;;
2023/03/30 19:19:22;;;;;;;;;33.50;28.50;;;;;14.10;41.97;101457.09;146640;600;45012;-71
2023/03/30 19:23:12;;;;;;;;;;;;;;;;;;;;;
2023/03/30 19:27:19;;;;;;;;;41.25;33.50;;;;;12.10;41.51;101142.41;146638;563;44915;-71
2023/03/30 19:30:58;;;;;;;;;45.25;35.75;;;;;13.76;41.92;101454.53;146641;663;44020;-71
2023/03/30 19:34:37;;;;;;;;;17.25;14.00;;;;;11.75;42.27;101128.44;146638;594;45010;-70
2023/03/30 19:38:33;;;;;;;;;24.25;20.50;;;;;13.47;42.15;101460.00;146642;638;44020;-71
2023/03/30 19:42:37;;;;;;;;;;;;;;;;;;;;;
2023/03/30 19:46:31;;;;;;;;;;;;;;;;;;;;;
2023/03/30 19:50:16;;;;;;;;;15.50;15.50;;;;;10.96;43.61;101115.47;146637;628;44925;-70
2023/03/30 20:02:03;;;;;;;;;17.00;14.50;;;;;12.60;44.48;101456.25;146632;609;44020;-71
2023/03/30 20:05:52;;;;;;;;;;;;;;;;;;;;;
2023/03/30 20:09:49;;;;;;;;;19.25;17.00;;;;;10.47;44.83;101119.59;146642;584;44020;-72
2023/03/30 20:14:11;;;;;;;;;16.00;13.75;;;;;10.09;45.75;101094.87;146641;573;45917;-72
2023/03/30 20:18:16;;;;;;;;;;;;;;;;;;;;;
2023/03/30 20:22:01;;;;;;;;;21.75;18.50;;;;;11.87;46.05;101451.31;146623;564;45917;-73
2023/03/30 20:26:31;;;;;;;;;;;;;;;;;;;;;
2023/03/30 20:30:17;;;;;;;;;8.75;7.75;;;;;9.46;45.14;101045.41;146622;680;45920;-72
2023/03/30 20:34:14;;;;;;;;;21.50;18.50;;;;;9.69;44.90;101089.94;146626;613;45020;-71
2023/03/30 20:38:17;;;;;;;;;20.25;18.75;;;;;11.69;45.23;101442.44;146621;597;45914;-71
2023/03/30 20:42:00;;;;;;;;;11.00;6.75;;;;;9.43;44.93;101052.97;146621;587;47010;-72
2023/03/30 20:50:07;;;;;;;;;7.25;6.50;;;;;9.44;44.93;101065.13;146624;569;45022;-71
2023/03/30 20:53:33;;;;;;;;;16.25;13.75;;;;;11.69;45.32;101437.22;146622;563;45016;-71
2023/03/30 21:04:12;;;;;;;;;10.00;7.75;;;;;11.55;44.62;101424.31;146626;467;45020;-74
2023/03/30 21:07:09;;;;;;;;;7.25;7.00;;;;;11.53;45.50;101422.47;146617;602;46012;-73
2023/03/30 21:10:03;;;;;;;;;10.25;9.00;;;;;11.50;45.13;101430.97;146620;655;47010;-73
2023/03/30 21:12:56;;;;;;;;;10.25;9.25;;;;;11.49;45.22;101428.25;146618;633;46035;-73
2023/03/30 21:15:57;;;;;;;;;14.00;11.75;;;;;11.53;44.75;101425.94;146617;580;46020;-72
2023/03/30 21:18:54;;;;;;;;;8.75;8.75;;;;;11.57;44.99;101424.41;146616;590;46016;-74
2023/03/30 21:21:53;;;;;;;;;8.00;5.00;;;;;10.90;44.91;101314.91;146622;617;46010;-73
2023/03/30 21:24:50;;;;;;;;;3.25;3.00;;;;;11.46;45.07;101428.97;146618;610;46016;-74
2023/03/30 21:27:46;;;;;;;;;4.25;4.00;;;;;11.41;44.95;101425.22;146621;565;46021;-73
2023/03/30 21:30:39;;;;;;;;;10.75;8.75;;;;;11.41;45.19;101425.22;146618;635;46012;-72
2023/03/30 21:33:34;;;;;;;;;10.00;8.75;;;;;11.35;45.21;101419.69;146619;675;46020;-73
2023/03/30 21:36:30;;;;;;;;;6.25;6.25;;;;;11.39;44.90;101439.81;146617;591;46017;-73
2023/03/30 21:39:28;;;;;;;;;6.50;4.00;;;;;11.40;45.44;101427.72;146620;577;46020;-74
2023/03/30 21:42:32;;;;;;;;;7.75;6.25;;;;;11.37;45.84;101432.72;146618;609;46016;-74
2023/03/30 21:45:25;;;;;;;;;7.00;5.75;;;;;11.30;45.85;101426.28;146618;572;46010;-75
2023/03/30 21:48:21;;;;;;;;;5.00;3.50;;;;;11.25;45.73;101430.31;146619;611;46012;-76
2023/03/30 21:51:22;;;;;;;;;5.50;4.50;;;;;11.21;45.70;101425.72;146623;577;46010;-76
2023/03/30 21:54:24;;;;;;;;;10.00;9.00;;;;;11.17;45.13;101416.87;146617;642;46016;-77
2023/03/30 21:57:17;;;;;;;;;9.00;7.25;;;;;11.19;46.11;101420.47;146620;564;46020;-75
2023/03/30 22:00:21;;;;;;;;;7.75;7.00;;;;;11.22;45.69;101424.94;146618;599;46012;-75
2023/03/30 22:03:16;;;;;;;;;6.50;5.50;;;;;11.20;46.85;101418.75;146620;589;46020;-74
2023/03/30 22:06:18;;;;;;;;;2.75;2.75;;;;;11.10;46.69;101410.41;146620;592;46012;-76
2023/03/30 22:09:28;;;;;;;;;4.50;4.50;;;;;11.04;45.93;101411.75;146622;578;46010;-73
2023/03/30 22:12:21;;;;;;;;;5.75;4.25;;;;;11.03;46.66;101412.56;146617;581;46017;-74
2023/03/30 22:15:16;;;;;;;;;5.00;5.00;;;;;10.97;47.13;101399.22;146618;593;46010;-75
2023/03/30 22:18:14;;;;;;;;;3.25;3.00;;;;;10.96;47.17;101398.31;146615;565;46017;-74
2023/03/30 22:21:19;;;;;;;;;4.25;3.50;;;;;10.92;47.58;101401.53;146620;582;46020;-73
2023/03/30 22:24:22;;;;;;;;;4.00;3.50;;;;;10.88;47.36;101396.97;146619;577;46012;-73
2023/03/30 22:27:27;;;;;;;;;5.50;5.25;;;;;10.89;47.25;101395.25;146622;593;46011;-75
2023/03/30 22:30:28;;;;;;;;;6.25;6.00;;;;;10.96;47.19;101403.50;146619;611;46014;-76
2023/03/30 22:33:31;;;;;;;;;7.00;6.75;;;;;11.06;46.03;101382.50;146620;711;46021;-73
2023/03/30 22:36:34;;;;;;;;;11.50;9.50;;;;;11.08;46.41;101373.09;146615;590;46917;-75
2023/03/30 22:39:29;;;;;;;;;9.50;9.50;;;;;11.14;47.32;101377.75;146620;594;46020;-74
2023/03/30 22:42:25;;;;;;;;;10.75;9.00;;;;;11.14;47.60;101377.75;146618;566;46916;-74
2023/03/30 22:45:40;;;;;;;;;19.25;16.25;;;;;11.17;46.04;101382.25;146608;594;47010;-72
2023/03/30 22:48:44;;;;;;;;;17.75;12.75;;;;;11.19;47.30;101378.94;146611;642;46012;-74
2023/03/30 22:51:44;;;;;;;;;24.25;21.00;;;;;11.28;47.95;101378.59;146612;649;46014;-75
2023/03/30 22:54:44;;;;;;;;;27.50;24.50;;;;;11.27;48.19;101380.25;146607;593;47012;-74
2023/03/30 22:57:46;;;;;;;;;14.50;13.75;;;;;10.64;47.86;101283.12;146614;649;46021;-73
2023/03/30 23:00:49;;;;;;;;;10.25;9.25;;;;;11.19;47.94;101385.84;146611;610;46012;-73
2023/03/30 23:04:09;;;;;;;;;11.00;10.00;;;;;11.14;48.23;101374.28;146619;606;46021;-73
2023/03/30 23:07:35;;;;;;;;;;;;;;;;;;;;;
2023/03/30 23:10:32;;;;;;;;;10.25;8.75;;;;;11.04;48.72;101367.62;146622;573;47008;-75
2023/03/30 23:13:30;;;;;;;;;6.50;6.50;;;;;11.05;48.92;101364.22;146616;600;46016;-74
2023/03/30 23:16:33;;;;;;;;;7.75;7.25;;;;;11.05;48.01;101364.22;146618;693;46020;-73
2023/03/30 23:19:45;;;;;;;;;9.75;8.75;;;;;11.04;48.82;101357.25;146614;565;46017;-72
2023/03/30 23:22:41;;;;;;;;;9.00;6.50;;;;;10.99;50.68;101353.47;146621;618;46010;-75
2023/03/30 23:25:53;;;;;;;;;10.50;8.00;;;;;10.91;47.85;101355.63;146618;577;46017;-74
2023/03/30 23:28:50;;;;;;;;;14.75;11.75;;;;;10.86;51.10;101344.97;146619;613;46021;-71
2023/03/30 23:31:53;;;;;;;;;7.25;7.25;;;;;10.73;51.07;101342.44;146613;573;45580;-70
2023/03/30 23:34:48;;;;;;;;;7.25;6.25;;;;;10.66;50.60;101340.28;146617;616;46031;-72
2023/03/30 23:37:43;;;;;;;;;4.25;4.00;;;;;10.57;51.40;101330.25;146711;564;46012;-72
2023/03/30 23:40:46;;;;;;;;;81.00;67.67;;;;;10.67;51.19;101331.69;146623;643;46034;-72
2023/03/30 23:43:46;;;;;;;;;21.25;18.25;;;;;10.74;51.03;101327.78;146627;581;46010;-72
2023/03/30 23:46:43;;;;;;;;;13.75;12.25;;;;;10.80;50.81;101328.16;146618;570;46016;-73
2023/03/30 23:49:55;;;;;;;;;17.75;15.00;;;;;10.76;49.41;101321.87;146622;616;46020;-72
2023/03/30 23:52:56;;;;;;;;;18.75;15.50;;;;;10.79;52.19;101332.44;146613;610;47915;-73
2023/03/30 23:55:51;;;;;;;;;4.75;4.75;;;;;10.71;52.35;101331.06;146622;638;46020;-74
2023/03/30 23:58:45;;;;;;;;;7.00;6.00;;;;;10.64;51.76;101323.75;146624;623;46015;-76
